sensor_id;sensor_type;location;lat;lon;timestamp;temperature;humidity
48752;DHT22;34544;48.836;9.174;2023-05-29T00:00:41;13.40;99.90
48752;DHT22;34544;48.836;9.174;2023-05-29T00:03:07;13.30;99.90
48752;DHT22;34544;48.836;9.174;2023-05-29T00:05:35;13.30;99.90
48752;DHT22;34544;48.836;9.174;2023-05-29T00:08:00;13.30;99.90
48752;DHT22;34544;48.836;9.174;2023-05-29T00:10:26;13.20;99.90
48752;DHT22;34544;48.836;9.174;2023-05-29T00:12:52;13.20;99.90
48752;DHT22;34544;48.836;9.174;2023-05-29T00:15:18;13.20;99.90
48752;DHT22;34544;48.836;9.174;2023-05-29T00:17:44;13.20;99.90
48752;DHT22;34544;48.836;9.174;2023-05-29T00:20:10;13.20;99.90
48752;DHT22;34544;48.836;9.174;2023-05-29T00:22:37;13.10;99.90
48752;DHT22;34544;48.836;9.174;2023-05-29T00:25:04;13.20;99.90
48752;DHT22;34544;48.836;9.174;2023-05-29T00:27:31;13.20;99.90
48752;DHT22;34544;48.836;9.174;2023-05-29T00:29:58;13.20;99.90
48752;DHT22;34544;48.836;9.174;2023-05-29T00:32:24;13.30;99.90
48752;DHT22;34544;48.836;9.174;2023-05-29T00:34:51;13.30;99.90
48752;DHT22;34544;48.836;9.174;2023-05-29T00:37:17;13.30;99.90
48752;DHT22;34544;48.836;9.174;2023-05-29T00:39:43;13.20;99.90
48752;DHT22;34544;48.836;9.174;2023-05-29T00:42:08;13.20;99.90
48752;DHT22;34544;48.836;9.174;2023-05-29T00:44:34;13.10;99.90
48752;DHT22;34544;48.836;9.174;2023-05-29T00:47:01;13.10;99.90
48752;DHT22;34544;48.836;9.174;2023-05-29T00:49:27;13.10;99.90
48752;DHT22;34544;48.836;9.174;2023-05-29T00:51:54;13.00;99.90
48752;DHT22;34544;48.836;9.174;2023-05-29T00:54:27;13.00;99.90
48752;DHT22;34544;48.836;9.174;2023-05-29T00:56:54;13.00;99.90
48752;DHT22;34544;48.836;9.174;2023-05-29T00:59:21;12.90;99.90
48752;DHT22;34544;48.836;9.174;2023-05-29T01:01:51;12.90;99.90
48752;DHT22;34544;48.836;9.174;2023-05-29T01:04:17;12.80;99.90
48752;DHT22;34544;48.836;9.174;2023-05-29T01:06:43;12.80;99.90
48752;DHT22;34544;48.836;9.174;2023-05-29T01:09:10;12.70;99.90
48752;DHT22;34544;48.836;9.174;2023-05-29T01:17:17;12.60;99.90
48752;DHT22;34544;48.836;9.174;2023-05-29T01:20:02;12.60;99.90
48752;DHT22;34544;48.836;9.174;2023-05-29T01:27:40;12.40;99.90
48752;DHT22;34544;48.836;9.174;2023-05-29T01:30:08;12.40;99.90
48752;DHT22;34544;48.836;9.174;2023-05-29T01:32:34;12.40;99.90
48752;DHT22;34544;48.836;9.174;2023-05-29T01:35:01;12.30;99.90
48752;DHT22;34544;48.836;9.174;2023-05-29T01:37:27;12.30;99.90
48752;DHT22;34544;48.836;9.174;2023-05-29T01:39:55;12.30;99.90
48752;DHT22;34544;48.836;9.174;2023-05-29T01:42:21;12.30;99.90
48752;DHT22;34544;48.836;9.174;2023-05-29T01:44:47;12.20;99.90
48752;DHT22;34544;48.836;9.174;2023-05-29T01:47:15;12.20;99.90
48752;DHT22;34544;48.836;9.174;2023-05-29T01:49:42;12.20;99.90
48752;DHT22;34544;48.836;9.174;2023-05-29T01:52:10;12.10;99.90
48752;DHT22;34544;48.836;9.174;2023-05-29T01:54:36;12.10;99.90
48752;DHT22;34544;48.836;9.174;2023-05-29T01:57:02;12.10;99.90
48752;DHT22;34544;48.836;9.174;2023-05-29T01:59:29;12.00;99.90
48752;DHT22;34544;48.836;9.174;2023-05-29T02:01:55;12.00;99.90
48752;DHT22;34544;48.836;9.174;2023-05-29T02:04:21;12.00;99.90
48752;DHT22;34544;48.836;9.174;2023-05-29T02:06:47;11.90;99.90
48752;DHT22;34544;48.836;9.174;2023-05-29T02:09:12;11.90;99.90
48752;DHT22;34544;48.836;9.174;2023-05-29T02:11:38;11.90;99.90
48752;DHT22;34544;48.836;9.174;2023-05-29T02:14:10;11.90;99.90
48752;DHT22;34544;48.836;9.174;2023-05-29T02:16:36;11.80;99.90
48752;DHT22;34544;48.836;9.174;2023-05-29T02:19:02;11.90;99.90
48752;DHT22;34544;48.836;9.174;2023-05-29T02:21:27;11.90;99.90
48752;DHT22;34544;48.836;9.174;2023-05-29T02:23:53;11.90;99.90
48752;DHT22;34544;48.836;9.174;2023-05-29T02:26:19;11.80;99.90
48752;DHT22;34544;48.836;9.174;2023-05-29T02:28:45;11.80;99.90
48752;DHT22;34544;48.836;9.174;2023-05-29T02:31:11;11.80;99.90
48752;DHT22;34544;48.836;9.174;2023-05-29T02:33:36;11.80;99.90
48752;DHT22;34544;48.836;9.174;2023-05-29T02:36:02;11.80;99.90
48752;DHT22;34544;48.836;9.174;2023-05-29T02:38:30;11.70;99.90
48752;DHT22;34544;48.836;9.174;2023-05-29T02:40:55;11.70;99.90
48752;DHT22;34544;48.836;9.174;2023-05-29T02:43:21;11.70;99.90
48752;DHT22;34544;48.836;9.174;2023-05-29T02:45:47;11.60;99.90
48752;DHT22;34544;48.836;9.174;2023-05-29T02:48:15;11.60;99.90
48752;DHT22;34544;48.836;9.174;2023-05-29T02:50:40;11.60;99.90
48752;DHT22;34544;48.836;9.174;2023-05-29T02:53:06;11.60;99.90
48752;DHT22;34544;48.836;9.174;2023-05-29T02:55:31;11.60;99.90
48752;DHT22;34544;48.836;9.174;2023-05-29T02:58:01;11.60;99.90
48752;DHT22;34544;48.836;9.174;2023-05-29T03:00:27;11.60;99.90
48752;DHT22;34544;48.836;9.174;2023-05-29T03:02:57;11.60;99.90
48752;DHT22;34544;48.836;9.174;2023-05-29T03:05:23;11.60;99.90
48752;DHT22;34544;48.836;9.174;2023-05-29T03:07:48;11.60;99.90
48752;DHT22;34544;48.836;9.174;2023-05-29T03:10:14;11.50;99.90
48752;DHT22;34544;48.836;9.174;2023-05-29T03:12:43;11.50;99.90
48752;DHT22;34544;48.836;9.174;2023-05-29T03:15:10;11.50;99.90
48752;DHT22;34544;48.836;9.174;2023-05-29T03:17:36;11.50;99.90
48752;DHT22;34544;48.836;9.174;2023-05-29T03:20:04;11.40;99.90
48752;DHT22;34544;48.836;9.174;2023-05-29T03:22:36;11.40;99.90
48752;DHT22;34544;48.836;9.174;2023-05-29T03:25:03;11.40;99.90
48752;DHT22;34544;48.836;9.174;2023-05-29T03:27:29;11.30;99.90
48752;DHT22;34544;48.836;9.174;2023-05-29T03:30:04;11.30;99.90
48752;DHT22;34544;48.836;9.174;2023-05-29T03:32:31;11.30;99.90
48752;DHT22;34544;48.836;9.174;2023-05-29T03:34:57;11.30;99.90
48752;DHT22;34544;48.836;9.174;2023-05-29T03:37:23;11.20;99.90
48752;DHT22;34544;48.836;9.174;2023-05-29T03:39:50;11.20;99.90
48752;DHT22;34544;48.836;9.174;2023-05-29T03:42:18;11.20;99.90
48752;DHT22;34544;48.836;9.174;2023-05-29T03:44:43;11.20;99.90
48752;DHT22;34544;48.836;9.174;2023-05-29T03:47:10;11.20;99.90
48752;DHT22;34544;48.836;9.174;2023-05-29T03:49:37;11.20;99.90
48752;DHT22;34544;48.836;9.174;2023-05-29T03:52:03;11.10;99.90
48752;DHT22;34544;48.836;9.174;2023-05-29T03:54:29;11.20;99.90
48752;DHT22;34544;48.836;9.174;2023-05-29T03:56:55;11.10;99.90
48752;DHT22;34544;48.836;9.174;2023-05-29T03:59:24;11.20;99.90
48752;DHT22;34544;48.836;9.174;2023-05-29T04:01:50;11.10;99.90
48752;DHT22;34544;48.836;9.174;2023-05-29T04:04:16;11.20;99.90
48752;DHT22;34544;48.836;9.174;2023-05-29T04:06:41;11.10;99.90
48752;DHT22;34544;48.836;9.174;2023-05-29T04:09:07;11.10;99.90
48752;DHT22;34544;48.836;9.174;2023-05-29T04:11:34;11.20;99.90
48752;DHT22;34544;48.836;9.174;2023-05-29T04:14:02;11.20;99.90
48752;DHT22;34544;48.836;9.174;2023-05-29T04:16:28;11.20;99.90
48752;DHT22;34544;48.836;9.174;2023-05-29T04:18:55;11.20;99.90
48752;DHT22;34544;48.836;9.174;2023-05-29T04:21:22;11.30;99.90
48752;DHT22;34544;48.836;9.174;2023-05-29T04:23:48;11.30;99.90
48752;DHT22;34544;48.836;9.174;2023-05-29T04:26:14;11.30;99.90
48752;DHT22;34544;48.836;9.174;2023-05-29T04:28:40;11.40;99.90
48752;DHT22;34544;48.836;9.174;2023-05-29T04:31:06;11.40;99.90
48752;DHT22;34544;48.836;9.174;2023-05-29T04:33:33;11.50;99.90
48752;DHT22;34544;48.836;9.174;2023-05-29T04:36:03;11.50;99.90
48752;DHT22;34544;48.836;9.174;2023-05-29T04:38:30;11.60;99.90
48752;DHT22;34544;48.836;9.174;2023-05-29T04:40:57;11.70;99.90
48752;DHT22;34544;48.836;9.174;2023-05-29T04:43:27;11.70;99.90
48752;DHT22;34544;48.836;9.174;2023-05-29T04:46:00;11.80;99.90
48752;DHT22;34544;48.836;9.174;2023-05-29T04:48:29;11.90;99.90
48752;DHT22;34544;48.836;9.174;2023-05-29T04:50:54;12.00;99.90
48752;DHT22;34544;48.836;9.174;2023-05-29T04:53:20;12.10;99.90
48752;DHT22;34544;48.836;9.174;2023-05-29T04:55:47;12.20;99.90
48752;DHT22;34544;48.836;9.174;2023-05-29T04:58:13;12.30;99.90
48752;DHT22;34544;48.836;9.174;2023-05-29T05:00:40;12.50;99.90
48752;DHT22;34544;48.836;9.174;2023-05-29T05:03:05;12.60;99.90
48752;DHT22;34544;48.836;9.174;2023-05-29T05:05:32;12.70;99.90
48752;DHT22;34544;48.836;9.174;2023-05-29T05:08:00;12.80;99.90
48752;DHT22;34544;48.836;9.174;2023-05-29T05:10:26;13.00;99.90
48752;DHT22;34544;48.836;9.174;2023-05-29T05:12:52;13.10;99.90
48752;DHT22;34544;48.836;9.174;2023-05-29T05:15:20;13.50;99.90
48752;DHT22;34544;48.836;9.174;2023-05-29T05:20:12;13.50;99.90
48752;DHT22;34544;48.836;9.174;2023-05-29T05:22:38;13.70;99.90
48752;DHT22;34544;48.836;9.174;2023-05-29T05:25:05;13.80;99.90
48752;DHT22;34544;48.836;9.174;2023-05-29T05:27:30;13.90;99.90
48752;DHT22;34544;48.836;9.174;2023-05-29T05:29:56;14.00;99.90
48752;DHT22;34544;48.836;9.174;2023-05-29T05:32:23;14.10;99.90
48752;DHT22;34544;48.836;9.174;2023-05-29T05:34:56;14.20;99.90
48752;DHT22;34544;48.836;9.174;2023-05-29T05:37:22;14.30;99.90
48752;DHT22;34544;48.836;9.174;2023-05-29T05:39:50;14.40;99.90
48752;DHT22;34544;48.836;9.174;2023-05-29T05:42:16;14.50;99.90
48752;DHT22;34544;48.836;9.174;2023-05-29T05:44:53;14.60;99.90
48752;DHT22;34544;48.836;9.174;2023-05-29T05:47:19;14.80;99.90
48752;DHT22;34544;48.836;9.174;2023-05-29T05:49:44;14.90;99.90
48752;DHT22;34544;48.836;9.174;2023-05-29T05:52:10;15.00;99.90
48752;DHT22;34544;48.836;9.174;2023-05-29T05:54:36;15.10;99.90
48752;DHT22;34544;48.836;9.174;2023-05-29T05:57:01;15.20;99.90
48752;DHT22;34544;48.836;9.174;2023-05-29T05:59:29;15.30;99.90
48752;DHT22;34544;48.836;9.174;2023-05-29T06:01:54;15.40;99.90
48752;DHT22;34544;48.836;9.174;2023-05-29T06:04:20;15.50;99.90
48752;DHT22;34544;48.836;9.174;2023-05-29T06:06:46;15.60;99.90
48752;DHT22;34544;48.836;9.174;2023-05-29T06:09:12;15.70;99.90
48752;DHT22;34544;48.836;9.174;2023-05-29T06:11:39;15.80;99.90
48752;DHT22;34544;48.836;9.174;2023-05-29T06:14:05;15.90;99.90
48752;DHT22;34544;48.836;9.174;2023-05-29T06:18:57;16.10;99.90
48752;DHT22;34544;48.836;9.174;2023-05-29T06:21:24;16.20;99.90
48752;DHT22;34544;48.836;9.174;2023-05-29T06:23:54;16.30;99.90
48752;DHT22;34544;48.836;9.174;2023-05-29T06:26:21;16.40;99.90
48752;DHT22;34544;48.836;9.174;2023-05-29T06:28:48;16.70;99.90
48752;DHT22;34544;48.836;9.174;2023-05-29T06:31:14;16.60;99.90
48752;DHT22;34544;48.836;9.174;2023-05-29T06:33:40;16.70;99.90
48752;DHT22;34544;48.836;9.174;2023-05-29T06:36:06;16.80;99.90
48752;DHT22;34544;48.836;9.174;2023-05-29T06:38:33;16.90;99.90
48752;DHT22;34544;48.836;9.174;2023-05-29T06:40:59;17.00;99.90
48752;DHT22;34544;48.836;9.174;2023-05-29T06:43:25;17.10;99.90
48752;DHT22;34544;48.836;9.174;2023-05-29T06:45:56;17.20;99.90
48752;DHT22;34544;48.836;9.174;2023-05-29T06:48:21;17.30;99.90
48752;DHT22;34544;48.836;9.174;2023-05-29T06:53:35;17.50;99.90
48752;DHT22;34544;48.836;9.174;2023-05-29T06:56:01;17.60;99.90
48752;DHT22;34544;48.836;9.174;2023-05-29T06:58:29;17.80;99.90
48752;DHT22;34544;48.836;9.174;2023-05-29T07:00:56;18.00;99.90
48752;DHT22;34544;48.836;9.174;2023-05-29T07:03:30;18.20;99.90
48752;DHT22;34544;48.836;9.174;2023-05-29T07:05:56;18.50;99.90
48752;DHT22;34544;48.836;9.174;2023-05-29T07:08:23;18.70;99.90
48752;DHT22;34544;48.836;9.174;2023-05-29T07:10:50;18.90;99.90
48752;DHT22;34544;48.836;9.174;2023-05-29T07:13:17;19.10;99.90
48752;DHT22;34544;48.836;9.174;2023-05-29T07:15:44;19.30;99.90
48752;DHT22;34544;48.836;9.174;2023-05-29T07:18:11;19.50;99.90
48752;DHT22;34544;48.836;9.174;2023-05-29T07:20:38;19.80;99.90
48752;DHT22;34544;48.836;9.174;2023-05-29T07:23:04;19.90;99.90
48752;DHT22;34544;48.836;9.174;2023-05-29T07:25:31;20.10;99.90
48752;DHT22;34544;48.836;9.174;2023-05-29T07:27:57;20.30;99.90
48752;DHT22;34544;48.836;9.174;2023-05-29T07:30:23;20.40;99.90
48752;DHT22;34544;48.836;9.174;2023-05-29T07:32:50;20.60;99.90
48752;DHT22;34544;48.836;9.174;2023-05-29T07:35:16;20.80;99.90
48752;DHT22;34544;48.836;9.174;2023-05-29T07:37:42;20.90;99.90
48752;DHT22;34544;48.836;9.174;2023-05-29T07:40:10;21.20;99.90
48752;DHT22;34544;48.836;9.174;2023-05-29T07:42:54;21.40;99.90
48752;DHT22;34544;48.836;9.174;2023-05-29T07:45:21;21.60;99.90
48752;DHT22;34544;48.836;9.174;2023-05-29T07:47:47;21.70;99.90
48752;DHT22;34544;48.836;9.174;2023-05-29T07:52:42;22.00;99.90
48752;DHT22;34544;48.836;9.174;2023-05-29T07:55:10;22.20;99.90
48752;DHT22;34544;48.836;9.174;2023-05-29T07:57:38;22.40;99.90
48752;DHT22;34544;48.836;9.174;2023-05-29T08:00:05;22.50;99.90
48752;DHT22;34544;48.836;9.174;2023-05-29T08:02:34;22.80;99.90
48752;DHT22;34544;48.836;9.174;2023-05-29T08:05:21;22.90;99.90
48752;DHT22;34544;48.836;9.174;2023-05-29T08:10:14;23.30;99.20
48752;DHT22;34544;48.836;9.174;2023-05-29T08:12:40;23.50;98.70
48752;DHT22;34544;48.836;9.174;2023-05-29T08:15:07;23.60;98.90
48752;DHT22;34544;48.836;9.174;2023-05-29T08:17:35;23.80;99.30
48752;DHT22;34544;48.836;9.174;2023-05-29T08:20:01;23.90;98.70
48752;DHT22;34544;48.836;9.174;2023-05-29T08:22:29;24.10;98.60
48752;DHT22;34544;48.836;9.174;2023-05-29T08:24:55;24.40;98.50
48752;DHT22;34544;48.836;9.174;2023-05-29T08:27:21;24.60;96.00
48752;DHT22;34544;48.836;9.174;2023-05-29T08:29:47;24.60;97.30
48752;DHT22;34544;48.836;9.174;2023-05-29T08:32:12;24.70;96.60
48752;DHT22;34544;48.836;9.174;2023-05-29T08:34:38;24.90;96.80
48752;DHT22;34544;48.836;9.174;2023-05-29T08:37:04;25.00;99.70
48752;DHT22;34544;48.836;9.174;2023-05-29T08:39:30;25.00;95.40
48752;DHT22;34544;48.836;9.174;2023-05-29T08:42:04;25.10;95.80
48752;DHT22;34544;48.836;9.174;2023-05-29T08:44:33;25.30;96.60
48752;DHT22;34544;48.836;9.174;2023-05-29T08:47:02;25.40;95.80
48752;DHT22;34544;48.836;9.174;2023-05-29T08:49:40;25.60;95.80
48752;DHT22;34544;48.836;9.174;2023-05-29T08:52:19;25.60;95.80
48752;DHT22;34544;48.836;9.174;2023-05-29T08:54:45;25.80;95.20
48752;DHT22;34544;48.836;9.174;2023-05-29T08:57:11;25.90;95.60
48752;DHT22;34544;48.836;9.174;2023-05-29T08:59:39;26.10;96.00
48752;DHT22;34544;48.836;9.174;2023-05-29T09:02:07;26.40;94.90
48752;DHT22;34544;48.836;9.174;2023-05-29T09:04:33;26.40;93.60
48752;DHT22;34544;48.836;9.174;2023-05-29T09:06:59;26.30;94.60
48752;DHT22;34544;48.836;9.174;2023-05-29T09:09:26;26.50;93.60
48752;DHT22;34544;48.836;9.174;2023-05-29T09:11:53;26.50;93.70
48752;DHT22;34544;48.836;9.174;2023-05-29T09:14:33;26.70;94.10
48752;DHT22;34544;48.836;9.174;2023-05-29T09:17:00;26.90;93.50
48752;DHT22;34544;48.836;9.174;2023-05-29T09:19:25;27.20;93.60
48752;DHT22;34544;48.836;9.174;2023-05-29T09:21:51;27.40;93.30
48752;DHT22;34544;48.836;9.174;2023-05-29T09:24:17;27.50;92.70
48752;DHT22;34544;48.836;9.174;2023-05-29T09:26:52;27.70;93.00
48752;DHT22;34544;48.836;9.174;2023-05-29T09:29:17;27.90;92.20
48752;DHT22;34544;48.836;9.174;2023-05-29T09:31:46;27.90;92.30
48752;DHT22;34544;48.836;9.174;2023-05-29T09:34:12;27.90;92.00
48752;DHT22;34544;48.836;9.174;2023-05-29T09:36:38;28.10;92.60
48752;DHT22;34544;48.836;9.174;2023-05-29T09:39:04;28.30;91.80
48752;DHT22;34544;48.836;9.174;2023-05-29T09:41:31;28.70;91.20
48752;DHT22;34544;48.836;9.174;2023-05-29T09:43:59;28.80;91.20
48752;DHT22;34544;48.836;9.174;2023-05-29T09:46:26;28.90;91.20
48752;DHT22;34544;48.836;9.174;2023-05-29T09:48:51;29.10;90.00
48752;DHT22;34544;48.836;9.174;2023-05-29T09:51:23;29.30;88.80
48752;DHT22;34544;48.836;9.174;2023-05-29T09:53:50;29.40;89.40
48752;DHT22;34544;48.836;9.174;2023-05-29T09:56:23;29.60;89.80
48752;DHT22;34544;48.836;9.174;2023-05-29T09:58:51;29.70;89.50
48752;DHT22;34544;48.836;9.174;2023-05-29T10:01:18;29.80;89.10
48752;DHT22;34544;48.836;9.174;2023-05-29T10:03:43;30.10;89.50
48752;DHT22;34544;48.836;9.174;2023-05-29T10:06:18;30.30;87.10
48752;DHT22;34544;48.836;9.174;2023-05-29T10:08:46;30.50;83.50
48752;DHT22;34544;48.836;9.174;2023-05-29T10:11:17;30.60;82.00
48752;DHT22;34544;48.836;9.174;2023-05-29T10:13:46;30.50;82.00
48752;DHT22;34544;48.836;9.174;2023-05-29T10:16:15;30.40;79.80
48752;DHT22;34544;48.836;9.174;2023-05-29T10:18:50;30.50;81.60
48752;DHT22;34544;48.836;9.174;2023-05-29T10:21:17;30.80;81.50
48752;DHT22;34544;48.836;9.174;2023-05-29T10:23:47;31.00;78.30
48752;DHT22;34544;48.836;9.174;2023-05-29T10:26:22;31.00;80.00
48752;DHT22;34544;48.836;9.174;2023-05-29T10:28:58;31.20;81.10
48752;DHT22;34544;48.836;9.174;2023-05-29T10:31:39;31.40;80.10
48752;DHT22;34544;48.836;9.174;2023-05-29T10:37:07;31.40;79.30
48752;DHT22;34544;48.836;9.174;2023-05-29T10:39:35;31.90;84.10
48752;DHT22;34544;48.836;9.174;2023-05-29T10:42:00;32.00;88.20
48752;DHT22;34544;48.836;9.174;2023-05-29T10:49:25;32.30;76.00
48752;DHT22;34544;48.836;9.174;2023-05-29T10:51:51;32.50;80.00
48752;DHT22;34544;48.836;9.174;2023-05-29T10:54:22;32.60;76.10
48752;DHT22;34544;48.836;9.174;2023-05-29T10:56:52;32.60;73.70
48752;DHT22;34544;48.836;9.174;2023-05-29T10:59:18;32.80;72.00
48752;DHT22;34544;48.836;9.174;2023-05-29T11:01:44;32.80;71.20
48752;DHT22;34544;48.836;9.174;2023-05-29T11:06:51;33.00;70.80
48752;DHT22;34544;48.836;9.174;2023-05-29T11:09:31;33.10;70.30
48752;DHT22;34544;48.836;9.174;2023-05-29T11:12:22;33.20;69.70
48752;DHT22;34544;48.836;9.174;2023-05-29T11:15:09;33.20;68.00
48752;DHT22;34544;48.836;9.174;2023-05-29T11:20:14;33.50;68.20
48752;DHT22;34544;48.836;9.174;2023-05-29T11:23:00;33.50;68.00
48752;DHT22;34544;48.836;9.174;2023-05-29T11:25:27;33.50;68.10
48752;DHT22;34544;48.836;9.174;2023-05-29T11:27:53;33.70;67.50
48752;DHT22;34544;48.836;9.174;2023-05-29T11:30:20;33.90;65.30
48752;DHT22;34544;48.836;9.174;2023-05-29T11:32:46;34.30;66.20
48752;DHT22;34544;48.836;9.174;2023-05-29T11:35:13;34.40;64.60
48752;DHT22;34544;48.836;9.174;2023-05-29T11:37:40;34.70;66.30
48752;DHT22;34544;48.836;9.174;2023-05-29T11:40:09;34.90;64.20
48752;DHT22;34544;48.836;9.174;2023-05-29T11:42:45;34.70;64.10
48752;DHT22;34544;48.836;9.174;2023-05-29T11:47:54;34.60;64.00
48752;DHT22;34544;48.836;9.174;2023-05-29T11:50:25;34.90;63.40
48752;DHT22;34544;48.836;9.174;2023-05-29T11:52:50;35.20;63.00
48752;DHT22;34544;48.836;9.174;2023-05-29T11:55:20;35.20;62.20
48752;DHT22;34544;48.836;9.174;2023-05-29T11:57:56;35.20;62.10
48752;DHT22;34544;48.836;9.174;2023-05-29T12:00:22;35.30;62.10
48752;DHT22;34544;48.836;9.174;2023-05-29T12:02:48;35.00;60.90
48752;DHT22;34544;48.836;9.174;2023-05-29T12:05:16;34.90;60.90
48752;DHT22;34544;48.836;9.174;2023-05-29T12:07:50;35.00;62.80
48752;DHT22;34544;48.836;9.174;2023-05-29T12:10:17;35.10;59.50
48752;DHT22;34544;48.836;9.174;2023-05-29T12:12:50;35.20;59.40
48752;DHT22;34544;48.836;9.174;2023-05-29T12:15:16;35.20;58.90
48752;DHT22;34544;48.836;9.174;2023-05-29T12:17:43;35.50;58.70
48752;DHT22;34544;48.836;9.174;2023-05-29T12:20:11;35.60;59.70
48752;DHT22;34544;48.836;9.174;2023-05-29T12:22:38;35.70;59.60
48752;DHT22;34544;48.836;9.174;2023-05-29T12:25:09;36.10;58.90
48752;DHT22;34544;48.836;9.174;2023-05-29T12:27:36;36.30;58.40
48752;DHT22;34544;48.836;9.174;2023-05-29T12:30:27;36.30;59.60
48752;DHT22;34544;48.836;9.174;2023-05-29T12:32:53;36.10;57.60
48752;DHT22;34544;48.836;9.174;2023-05-29T12:35:23;35.90;58.90
48752;DHT22;34544;48.836;9.174;2023-05-29T12:37:57;35.90;57.50
48752;DHT22;34544;48.836;9.174;2023-05-29T12:40:28;35.90;56.40
48752;DHT22;34544;48.836;9.174;2023-05-29T12:43:05;36.00;56.50
48752;DHT22;34544;48.836;9.174;2023-05-29T12:45:32;35.20;58.10
48752;DHT22;34544;48.836;9.174;2023-05-29T12:48:03;35.10;57.80
48752;DHT22;34544;48.836;9.174;2023-05-29T12:50:30;35.40;58.10
48752;DHT22;34544;48.836;9.174;2023-05-29T12:53:11;35.60;57.60
48752;DHT22;34544;48.836;9.174;2023-05-29T12:55:39;35.90;57.70
48752;DHT22;34544;48.836;9.174;2023-05-29T12:58:05;36.20;56.40
48752;DHT22;34544;48.836;9.174;2023-05-29T13:00:35;36.60;56.40
48752;DHT22;34544;48.836;9.174;2023-05-29T13:03:01;36.80;56.60
48752;DHT22;34544;48.836;9.174;2023-05-29T13:05:27;36.70;55.50
48752;DHT22;34544;48.836;9.174;2023-05-29T13:07:53;36.70;56.20
48752;DHT22;34544;48.836;9.174;2023-05-29T13:10:20;36.30;55.80
48752;DHT22;34544;48.836;9.174;2023-05-29T13:12:48;36.50;56.00
48752;DHT22;34544;48.836;9.174;2023-05-29T13:15:22;36.50;54.70
48752;DHT22;34544;48.836;9.174;2023-05-29T13:17:49;36.40;55.90
48752;DHT22;34544;48.836;9.174;2023-05-29T13:20:15;36.30;55.10
48752;DHT22;34544;48.836;9.174;2023-05-29T13:22:42;36.60;55.40
48752;DHT22;34544;48.836;9.174;2023-05-29T13:25:09;36.30;54.40
48752;DHT22;34544;48.836;9.174;2023-05-29T13:27:40;36.20;55.80
48752;DHT22;34544;48.836;9.174;2023-05-29T13:30:07;36.10;54.60
48752;DHT22;34544;48.836;9.174;2023-05-29T13:32:33;36.20;56.30
48752;DHT22;34544;48.836;9.174;2023-05-29T13:34:59;36.30;54.90
48752;DHT22;34544;48.836;9.174;2023-05-29T13:37:24;36.50;55.10
48752;DHT22;34544;48.836;9.174;2023-05-29T13:39:50;36.30;54.90
48752;DHT22;34544;48.836;9.174;2023-05-29T13:42:17;36.40;55.30
48752;DHT22;34544;48.836;9.174;2023-05-29T13:44:43;36.50;55.90
48752;DHT22;34544;48.836;9.174;2023-05-29T13:47:08;36.70;55.10
48752;DHT22;34544;48.836;9.174;2023-05-29T13:49:34;36.80;54.80
48752;DHT22;34544;48.836;9.174;2023-05-29T13:52:01;36.90;55.40
48752;DHT22;34544;48.836;9.174;2023-05-29T13:54:27;37.10;54.20
48752;DHT22;34544;48.836;9.174;2023-05-29T13:56:56;37.20;54.30
48752;DHT22;34544;48.836;9.174;2023-05-29T13:59:22;37.20;53.40
48752;DHT22;34544;48.836;9.174;2023-05-29T14:01:48;37.20;54.60
48752;DHT22;34544;48.836;9.174;2023-05-29T14:04:13;37.10;52.50
48752;DHT22;34544;48.836;9.174;2023-05-29T14:06:39;37.10;53.70
48752;DHT22;34544;48.836;9.174;2023-05-29T14:09:05;36.90;54.40
48752;DHT22;34544;48.836;9.174;2023-05-29T14:11:37;37.10;53.20
48752;DHT22;34544;48.836;9.174;2023-05-29T14:14:03;37.20;52.90
48752;DHT22;34544;48.836;9.174;2023-05-29T14:16:30;37.40;60.50
48752;DHT22;34544;48.836;9.174;2023-05-29T14:18:55;37.30;62.90
48752;DHT22;34544;48.836;9.174;2023-05-29T14:21:21;37.40;61.20
48752;DHT22;34544;48.836;9.174;2023-05-29T14:23:47;37.60;53.20
48752;DHT22;34544;48.836;9.174;2023-05-29T14:26:12;37.60;53.80
48752;DHT22;34544;48.836;9.174;2023-05-29T14:28:38;37.20;53.10
48752;DHT22;34544;48.836;9.174;2023-05-29T14:31:05;37.10;53.40
48752;DHT22;34544;48.836;9.174;2023-05-29T14:33:31;36.90;53.60
48752;DHT22;34544;48.836;9.174;2023-05-29T14:35:57;37.00;53.70
48752;DHT22;34544;48.836;9.174;2023-05-29T14:38:23;37.20;54.30
48752;DHT22;34544;48.836;9.174;2023-05-29T14:40:49;36.80;54.70
48752;DHT22;34544;48.836;9.174;2023-05-29T14:43:14;36.50;55.40
48752;DHT22;34544;48.836;9.174;2023-05-29T14:45:40;36.50;54.50
48752;DHT22;34544;48.836;9.174;2023-05-29T14:48:06;36.60;54.50
48752;DHT22;34544;48.836;9.174;2023-05-29T14:50:32;36.50;55.20
48752;DHT22;34544;48.836;9.174;2023-05-29T14:52:57;36.70;55.30
48752;DHT22;34544;48.836;9.174;2023-05-29T14:55:23;37.00;55.30
48752;DHT22;34544;48.836;9.174;2023-05-29T14:57:48;37.00;54.00
48752;DHT22;34544;48.836;9.174;2023-05-29T15:00:14;36.90;55.00
48752;DHT22;34544;48.836;9.174;2023-05-29T15:02:40;36.80;54.30
48752;DHT22;34544;48.836;9.174;2023-05-29T15:05:06;36.80;54.20
48752;DHT22;34544;48.836;9.174;2023-05-29T15:07:33;36.40;54.40
48752;DHT22;34544;48.836;9.174;2023-05-29T15:10:04;36.20;54.90
48752;DHT22;34544;48.836;9.174;2023-05-29T15:12:31;36.10;55.10
48752;DHT22;34544;48.836;9.174;2023-05-29T15:14:57;36.00;54.70
48752;DHT22;34544;48.836;9.174;2023-05-29T15:17:23;36.20;54.80
48752;DHT22;34544;48.836;9.174;2023-05-29T15:19:48;36.40;55.10
48752;DHT22;34544;48.836;9.174;2023-05-29T15:22:14;36.50;55.70
48752;DHT22;34544;48.836;9.174;2023-05-29T15:24:39;36.30;55.10
48752;DHT22;34544;48.836;9.174;2023-05-29T15:27:05;36.00;55.70
48752;DHT22;34544;48.836;9.174;2023-05-29T15:29:35;36.00;55.60
48752;DHT22;34544;48.836;9.174;2023-05-29T15:32:02;35.90;55.00
48752;DHT22;34544;48.836;9.174;2023-05-29T15:34:28;35.70;55.60
48752;DHT22;34544;48.836;9.174;2023-05-29T15:36:55;35.80;55.70
48752;DHT22;34544;48.836;9.174;2023-05-29T15:39:21;35.90;55.40
48752;DHT22;34544;48.836;9.174;2023-05-29T15:41:47;36.00;55.40
48752;DHT22;34544;48.836;9.174;2023-05-29T15:44:12;35.90;55.50
48752;DHT22;34544;48.836;9.174;2023-05-29T15:46:38;35.90;54.60
48752;DHT22;34544;48.836;9.174;2023-05-29T15:49:04;35.40;55.30
48752;DHT22;34544;48.836;9.174;2023-05-29T15:51:29;35.40;55.40
48752;DHT22;34544;48.836;9.174;2023-05-29T15:53:56;35.20;55.20
48752;DHT22;34544;48.836;9.174;2023-05-29T15:56:21;34.80;55.00
48752;DHT22;34544;48.836;9.174;2023-05-29T15:58:52;34.70;55.10
48752;DHT22;34544;48.836;9.174;2023-05-29T16:01:18;34.40;56.40
48752;DHT22;34544;48.836;9.174;2023-05-29T16:03:44;34.20;56.00
48752;DHT22;34544;48.836;9.174;2023-05-29T16:06:09;34.20;56.10
48752;DHT22;34544;48.836;9.174;2023-05-29T16:08:35;34.20;55.50
48752;DHT22;34544;48.836;9.174;2023-05-29T16:11:01;34.30;56.10